KBBB/BBB METAR and TAF weather

Enter ICAO airport designator
Station Type Date Time Source
KBBB METAR 2019/10/16 20:16 UTC NOAA

KBBB 162016Z AUTO 00000KT 10SM OVC020 06/02 A3010 RMK AO2


Station Type Date Time Source
KBBB Decoded METAR 2019/10/16 20:16 UTC NOAA

Benson Municipal, MN, United States (KBBB) 45-19N 095-39W
Oct 16, 2019 - 04:16 PM EDT / 2019.10.16 2016 UTC
Wind: Calm:0
Visibility: 10 mile(s):0
Sky conditions: overcast
Temperature: 42 F (6 C)
Dew Point: 35 F (2 C)
Relative Humidity: 75%
Pressure (altimeter): 30.1 in. Hg (1019 hPa)
ob: KBBB 162016Z AUTO 00000KT 10SM OVC020 06/02 A3010 RMK AO2
cycle: 20

Station Type Date Time Source
KBBB TAF UTC NOAA

Error!

Example: see airport list